Terminal Aerodrome Forecast
Issued by NWS

Home | Current Version | Previous Version | Text Only | Print | Product List | Glossary On
Versions: 1 2 3 4 5 6 7 8 9 10 11 12 13 14 15 16 17 18
000
FTUS45 KRIW 032300
TAFCPR
TAF
KCPR 032337Z 0400/0424 08008KT 6SM -SN SCT025 BKN040
     FM040300 24006KT P6SM -SN SCT030 BKN050
     FM041200 24009KT P6SM SCT050
     FM041700 23012G18KT P6SM SKC=

USA.gov is the U.S. government's official web portal to all federal, state and local government web resources and services.